createdAt,value
2022-10-14T00:02:08.998Z,7.32
2022-10-14T00:05:12.176Z,7.30
2022-10-14T00:08:14.665Z,7.28
2022-10-14T00:11:24.098Z,7.28
2022-10-14T00:14:26.877Z,7.26
2022-10-14T00:17:30.645Z,7.23
2022-10-14T00:20:33.256Z,7.19
2022-10-14T00:23:36.488Z,7.21
2022-10-14T00:26:40.587Z,7.18
2022-10-14T00:29:43.518Z,7.17
2022-10-14T00:32:46.335Z,7.16
2022-10-14T00:36:00.896Z,7.13
2022-10-14T00:39:05.294Z,7.11
2022-10-14T00:42:14.564Z,7.09
2022-10-14T00:45:21.725Z,7.09
2022-10-14T00:48:26.422Z,7.12
2022-10-14T00:51:31.114Z,7.14
2022-10-14T00:55:18.744Z,7.15
2022-10-14T00:58:21.558Z,7.17
2022-10-14T01:01:24.898Z,6.99
2022-10-14T01:04:27.902Z,7.09
2022-10-14T01:07:39.777Z,7.14
2022-10-14T01:10:53.484Z,7.13
2022-10-14T01:14:02.681Z,7.10
2022-10-14T01:17:15.583Z,7.16
2022-10-14T01:20:21.418Z,7.18
2022-10-14T01:23:42.029Z,7.12
2022-10-14T01:27:13.937Z,7.06
2022-10-14T01:30:28.903Z,7.15
2022-10-14T01:33:39.914Z,7.08
2022-10-14T01:36:42.434Z,7.04
2022-10-14T01:39:51.066Z,7.05
2022-10-14T01:42:55.681Z,7.04
2022-10-14T01:46:02.275Z,7.04
2022-10-14T01:49:10.869Z,7.04
2022-10-14T01:52:22.976Z,7.01
2022-10-14T01:55:30.503Z,6.89
2022-10-14T01:58:35.165Z,6.87
2022-10-14T02:01:38.528Z,6.81
2022-10-14T02:04:41.709Z,6.87
2022-10-14T02:07:50.944Z,6.84
2022-10-14T02:11:21.557Z,6.82
2022-10-14T02:14:43.795Z,6.79
2022-10-14T02:18:09.602Z,6.72
2022-10-14T02:21:38.717Z,6.59
2022-10-14T02:24:46.598Z,6.55
2022-10-14T02:27:52.410Z,6.48
2022-10-14T02:31:00.699Z,6.43
2022-10-14T02:34:09.682Z,6.41
2022-10-14T02:37:15.039Z,6.34
2022-10-14T02:40:43.771Z,6.32
2022-10-14T02:43:46.528Z,6.19
2022-10-14T02:46:49.598Z,6.22
2022-10-14T02:49:52.677Z,6.30
2022-10-14T02:52:55.801Z,6.32
2022-10-14T02:55:58.453Z,6.29
2022-10-14T02:59:01.498Z,6.31
2022-10-14T03:02:04.647Z,6.24
2022-10-14T03:05:08.677Z,6.37
2022-10-14T03:08:11.581Z,6.32
2022-10-14T03:11:14.982Z,6.37
2022-10-14T03:14:17.718Z,6.26
2022-10-14T03:17:21.978Z,6.31
2022-10-14T03:20:26.005Z,6.27
2022-10-14T03:23:29.122Z,6.13
2022-10-14T03:26:31.951Z,6.08
2022-10-14T03:29:34.981Z,6.00
2022-10-14T03:32:39.293Z,6.08
2022-10-14T03:35:43.302Z,6.06
2022-10-14T03:38:46.826Z,6.13
2022-10-14T03:41:51.694Z,6.15
2022-10-14T03:44:56.207Z,6.09
2022-10-14T03:47:59.473Z,6.24
2022-10-14T03:51:02.288Z,6.23
2022-10-14T03:54:05.955Z,6.15
2022-10-14T03:57:08.854Z,6.25
2022-10-14T04:00:15.239Z,6.26
2022-10-14T04:03:17.785Z,6.38
2022-10-14T04:06:21.029Z,6.35
2022-10-14T04:09:27.696Z,6.38
2022-10-14T04:12:31.123Z,6.38
2022-10-14T04:15:36.468Z,6.38
2022-10-14T04:18:40.301Z,6.34
2022-10-14T04:21:44.348Z,6.22
2022-10-14T04:24:47.240Z,6.19
2022-10-14T04:27:50.177Z,6.20
2022-10-14T04:30:53.191Z,6.29
2022-10-14T04:33:56.314Z,6.22
2022-10-14T04:37:00.411Z,6.22
2022-10-14T04:40:05.639Z,6.18
2022-10-14T04:43:08.748Z,6.25
2022-10-14T04:46:11.940Z,6.19
2022-10-14T04:49:16.631Z,6.12
2022-10-14T04:52:22.030Z,6.20
2022-10-14T04:55:26.617Z,6.12
2022-10-14T04:58:29.603Z,6.20
2022-10-14T05:01:34.145Z,6.16
2022-10-14T05:04:37.150Z,6.14
2022-10-14T05:07:40.235Z,6.32
2022-10-14T05:10:44.563Z,6.32
2022-10-14T05:13:49.979Z,6.30
2022-10-14T05:16:52.991Z,6.19
2022-10-14T05:19:57.193Z,6.29
2022-10-14T05:23:01.243Z,6.36
2022-10-14T05:26:04.751Z,6.42
2022-10-14T05:29:09.313Z,6.50
2022-10-14T05:32:13.819Z,6.47
2022-10-14T05:35:29.089Z,6.50
2022-10-14T05:38:40.103Z,6.56
2022-10-14T05:41:42.916Z,6.67
2022-10-14T05:44:46.246Z,6.71
2022-10-14T05:47:49.035Z,7.13
2022-10-14T05:50:52.136Z,7.47
2022-10-14T05:53:57.761Z,7.87
2022-10-14T05:57:00.710Z,8.16
2022-10-14T06:00:06.491Z,8.72
2022-10-14T06:03:19.868Z,9.06
2022-10-14T06:06:28.027Z,9.27
2022-10-14T06:09:31.639Z,9.65
2022-10-14T06:12:34.614Z,10.15
2022-10-14T06:15:37.830Z,10.48
2022-10-14T06:18:41.245Z,10.90
2022-10-14T06:21:44.933Z,11.47
2022-10-14T06:24:47.917Z,11.93
2022-10-14T06:27:50.565Z,12.17
2022-10-14T06:30:54.762Z,12.36
2022-10-14T06:33:57.522Z,12.85
2022-10-14T06:37:02.373Z,13.36
2022-10-14T06:40:06.121Z,13.73
2022-10-14T06:43:09.078Z,14.11
2022-10-14T06:46:11.803Z,14.58
2022-10-14T06:49:15.048Z,14.57
2022-10-14T06:52:17.697Z,14.77
2022-10-14T06:55:20.800Z,14.84
2022-10-14T06:58:23.602Z,15.21
2022-10-14T07:01:27.321Z,15.23
2022-10-14T07:04:30.098Z,15.83
2022-10-14T07:07:33.518Z,15.42
2022-10-14T07:10:36.106Z,16.35
2022-10-14T07:13:40.086Z,16.34
2022-10-14T07:16:45.738Z,16.89
2022-10-14T07:19:48.743Z,17.08
2022-10-14T07:22:55.363Z,16.66
2022-10-14T07:25:59.566Z,16.29
2022-10-14T07:29:05.191Z,17.00
2022-10-14T07:32:08.158Z,17.23
2022-10-14T07:35:10.932Z,16.92
2022-10-14T07:38:13.926Z,16.89
2022-10-14T07:41:20.348Z,17.04
2022-10-14T07:44:26.496Z,17.32
2022-10-14T07:47:30.255Z,17.04
2022-10-14T07:50:33.144Z,17.16
2022-10-14T07:53:36.614Z,17.64
2022-10-14T07:56:41.704Z,17.07
2022-10-14T07:59:44.439Z,17.74
2022-10-14T08:02:47.583Z,17.64
2022-10-14T08:05:51.030Z,17.49
2022-10-14T08:08:54.041Z,17.58
2022-10-14T08:11:57.260Z,17.87
2022-10-14T08:15:00.048Z,18.45
2022-10-14T08:18:03.090Z,18.62
2022-10-14T08:21:05.767Z,18.39
2022-10-14T08:24:08.905Z,18.67
2022-10-14T08:27:11.551Z,18.94
2022-10-14T08:30:14.480Z,18.91
2022-10-14T08:33:17.987Z,18.79
2022-10-14T08:36:21.862Z,18.64
2022-10-14T08:39:24.617Z,18.49
2022-10-14T08:42:30.782Z,18.05
2022-10-14T08:45:42.771Z,17.98
2022-10-14T08:48:48.235Z,17.99
2022-10-14T08:52:06.613Z,17.87
2022-10-14T08:55:23.792Z,17.68
2022-10-14T08:58:31.958Z,17.49
2022-10-14T09:01:40.357Z,17.46
2022-10-14T09:04:43.202Z,17.44
2022-10-14T09:07:48.629Z,17.41
2022-10-14T09:10:51.578Z,17.58
2022-10-14T09:14:01.114Z,17.67
2022-10-14T09:17:18.070Z,17.42
2022-10-14T09:20:25.684Z,17.46
2022-10-14T09:23:28.387Z,17.31
2022-10-14T09:26:44.069Z,17.26
2022-10-14T09:29:54.095Z,16.98
2022-10-14T09:32:59.811Z,17.15
2022-10-14T09:36:02.548Z,17.03
2022-10-14T09:39:06.476Z,17.03
2022-10-14T09:42:18.237Z,16.89
2022-10-14T09:45:24.562Z,17.04
2022-10-14T09:48:52.207Z,17.07
2022-10-14T09:51:57.065Z,16.75
2022-10-14T09:55:01.672Z,16.94
2022-10-14T09:58:08.588Z,17.06
2022-10-14T10:01:21.038Z,17.00
2022-10-14T10:04:50.285Z,16.75
2022-10-14T10:08:14.411Z,16.74
2022-10-14T10:11:35.743Z,16.65
2022-10-14T10:14:38.297Z,16.70
2022-10-14T10:17:41.317Z,16.64
2022-10-14T10:21:02.286Z,16.90
2022-10-14T10:24:23.743Z,17.24
2022-10-14T10:27:37.394Z,17.41
2022-10-14T10:31:24.814Z,17.63
2022-10-14T10:35:04.297Z,17.64
2022-10-14T10:38:20.843Z,17.52
2022-10-14T10:41:48.454Z,17.43
2022-10-14T10:44:59.552Z,17.57
2022-10-14T10:48:33.470Z,17.86
2022-10-14T10:51:46.293Z,17.93
2022-10-14T10:55:24.954Z,18.03
2022-10-14T10:58:37.003Z,18.22
2022-10-14T11:01:53.675Z,18.23
2022-10-14T11:05:15.937Z,18.12
2022-10-14T11:08:58.255Z,18.09
2022-10-14T11:12:17.814Z,18.06
2022-10-14T11:15:35.160Z,17.91
2022-10-14T11:18:51.368Z,18.03
2022-10-14T11:22:40.141Z,17.79
2022-10-14T11:26:11.981Z,17.86
2022-10-14T11:29:35.428Z,17.60
2022-10-14T11:32:57.166Z,17.69
2022-10-14T11:36:19.415Z,17.74
2022-10-14T11:39:35.917Z,17.97
2022-10-14T11:43:09.890Z,17.94
2022-10-14T11:46:18.087Z,17.94
2022-10-14T11:49:30.757Z,17.78
2022-10-14T11:52:42.035Z,17.94
2022-10-14T11:55:51.360Z,17.91
2022-10-14T11:58:55.833Z,17.98
2022-10-14T12:02:04.034Z,17.87
2022-10-14T12:05:31.704Z,17.94
2022-10-14T12:09:05.915Z,17.75
2022-10-14T12:12:13.537Z,17.68
2022-10-14T12:15:21.120Z,17.73
2022-10-14T12:18:24.169Z,17.77
2022-10-14T12:21:38.081Z,17.71
2022-10-14T12:24:46.503Z,17.78
2022-10-14T12:27:52.301Z,17.89
2022-10-14T12:31:34.270Z,17.99
2022-10-14T12:34:39.418Z,17.84
2022-10-14T12:37:50.316Z,17.91
2022-10-14T12:40:53.592Z,18.07
2022-10-14T12:44:05.284Z,18.07
2022-10-14T12:47:18.821Z,18.16
2022-10-14T12:50:37.319Z,18.26
2022-10-14T12:53:48.418Z,18.26
2022-10-14T12:57:42.342Z,18.27
2022-10-14T13:00:55.118Z,18.33
2022-10-14T13:04:04.369Z,18.23
2022-10-14T13:07:46.149Z,18.33
2022-10-14T13:11:09.233Z,18.19
2022-10-14T13:14:35.591Z,18.06
2022-10-14T13:17:46.002Z,18.15
2022-10-14T13:20:51.571Z,18.26
2022-10-14T13:23:55.385Z,18.26
2022-10-14T13:27:09.830Z,18.23
2022-10-14T13:30:35.322Z,18.23
2022-10-14T13:33:46.004Z,18.18
2022-10-14T13:37:02.628Z,18.18
2022-10-14T13:40:34.704Z,18.19
2022-10-14T13:43:42.367Z,18.09
2022-10-14T13:46:49.187Z,18.09
2022-10-14T13:49:52.568Z,18.03
2022-10-14T13:53:10.377Z,18.06
2022-10-14T13:56:23.313Z,17.96
2022-10-14T13:59:43.761Z,18.01
2022-10-14T14:02:51.812Z,18.01
2022-10-14T14:05:59.262Z,17.98
2022-10-14T14:09:06.588Z,17.90
2022-10-14T14:12:13.403Z,17.80
2022-10-14T14:15:25.401Z,17.86
2022-10-14T14:18:56.405Z,17.83
2022-10-14T14:22:29.339Z,17.81
2022-10-14T14:25:34.675Z,17.79
2022-10-14T14:28:39.773Z,17.69
2022-10-14T14:35:12.992Z,17.67
2022-10-14T14:38:34.813Z,17.62
2022-10-14T14:41:37.455Z,17.59
2022-10-14T14:44:43.293Z,17.53
2022-10-14T14:47:48.163Z,17.40
2022-10-14T14:50:51.582Z,17.31
2022-10-14T14:53:55.460Z,17.16
2022-10-14T14:57:06.237Z,16.94
2022-10-14T15:00:19.129Z,16.72
2022-10-14T15:03:26.258Z,16.67
2022-10-14T15:06:29.633Z,16.45
2022-10-14T15:09:47.727Z,16.30
2022-10-14T15:12:56.421Z,16.05
2022-10-14T15:16:00.507Z,15.93
2022-10-14T15:19:38.396Z,15.79
2022-10-14T15:22:43.752Z,15.65
2022-10-14T15:25:58.082Z,15.48
2022-10-14T15:32:27.262Z,15.18
2022-10-14T15:35:31.301Z,15.03
2022-10-14T15:38:34.290Z,14.89
2022-10-14T15:41:38.678Z,14.75
2022-10-14T15:44:41.694Z,14.65
2022-10-14T15:47:45.673Z,14.51
2022-10-14T15:50:48.751Z,14.34
2022-10-14T15:53:52.690Z,14.20
2022-10-14T16:00:04.598Z,13.96
2022-10-14T16:03:17.739Z,13.81
2022-10-14T16:06:22.812Z,13.58
2022-10-14T16:09:29.402Z,13.51
2022-10-14T16:12:32.657Z,13.37
2022-10-14T16:15:57.168Z,13.22
2022-10-14T16:19:04.968Z,13.07
2022-10-14T16:22:07.786Z,12.97
2022-10-14T16:25:21.650Z,12.87
2022-10-14T16:28:24.493Z,12.69
2022-10-14T16:31:27.594Z,12.61
2022-10-14T16:34:30.302Z,12.48
2022-10-14T16:37:33.390Z,12.39
2022-10-14T16:40:36.964Z,12.35
2022-10-14T16:43:41.504Z,12.33
2022-10-14T16:47:03.073Z,12.29
2022-10-14T16:50:07.702Z,12.21
2022-10-14T16:53:29.170Z,12.12
2022-10-14T16:56:52.331Z,12.02
2022-10-14T16:59:55.147Z,11.86
2022-10-14T17:02:58.338Z,11.69
2022-10-14T17:06:01.126Z,11.57
2022-10-14T17:09:04.504Z,11.45
2022-10-14T17:12:13.026Z,11.35
2022-10-14T17:15:17.383Z,11.25
2022-10-14T17:18:25.439Z,11.12
2022-10-14T17:21:29.551Z,11.03
2022-10-14T17:24:32.549Z,10.94
2022-10-14T17:27:35.625Z,10.78
2022-10-14T17:30:38.421Z,10.81
2022-10-14T17:33:42.324Z,10.71
2022-10-14T17:36:45.246Z,10.63
2022-10-14T17:39:49.023Z,10.57
2022-10-14T17:42:51.743Z,10.51
2022-10-14T17:46:05.097Z,10.47
2022-10-14T17:49:11.075Z,10.41
2022-10-14T17:52:14.179Z,10.31
2022-10-14T17:55:20.727Z,10.22
2022-10-14T17:58:27.073Z,10.12
2022-10-14T18:01:37.647Z,10.02
2022-10-14T18:04:53.651Z,9.98
2022-10-14T18:07:56.442Z,9.94
2022-10-14T18:11:08.499Z,9.91
2022-10-14T18:14:14.603Z,9.87
2022-10-14T18:17:17.725Z,9.80
2022-10-14T18:20:20.510Z,9.75
2022-10-14T18:23:28.073Z,9.71
2022-10-14T18:26:31.286Z,9.65
2022-10-14T18:29:34.413Z,9.58
2022-10-14T18:32:37.637Z,9.53
2022-10-14T18:35:44.055Z,9.50
2022-10-14T18:38:53.981Z,9.44
2022-10-14T18:41:58.135Z,9.33
2022-10-14T18:45:01.543Z,9.27
2022-10-14T18:48:05.046Z,9.19
2022-10-14T18:51:09.283Z,9.12
2022-10-14T18:54:18.815Z,9.09
2022-10-14T18:57:21.885Z,9.03
2022-10-14T19:00:25.153Z,9.04
2022-10-14T19:03:27.893Z,9.00
2022-10-14T19:06:31.234Z,9.00
2022-10-14T19:09:34.459Z,9.01
2022-10-14T19:12:43.516Z,8.96
2022-10-14T19:15:51.377Z,8.97
2022-10-14T19:19:08.001Z,9.14
2022-10-14T19:22:10.972Z,9.02
2022-10-14T19:25:16.510Z,8.90
2022-10-14T19:28:19.427Z,8.77
2022-10-14T19:31:25.236Z,8.72
2022-10-14T19:34:28.043Z,8.68
2022-10-14T19:37:31.186Z,8.63
2022-10-14T19:40:34.023Z,8.58
2022-10-14T19:43:37.472Z,8.56
2022-10-14T19:46:40.803Z,8.53
2022-10-14T19:49:43.916Z,8.51
2022-10-14T19:52:46.670Z,8.50
2022-10-14T19:55:49.786Z,8.46
2022-10-14T19:58:54.907Z,8.44
2022-10-14T20:01:58.091Z,8.34
2022-10-14T20:05:01.113Z,8.41
2022-10-14T20:08:04.040Z,8.28
2022-10-14T20:11:12.155Z,8.36
2022-10-14T20:14:14.910Z,8.34
2022-10-14T20:20:20.727Z,8.30
2022-10-14T20:23:25.310Z,8.22
2022-10-14T20:26:28.300Z,8.23
2022-10-14T20:29:31.479Z,8.20
2022-10-14T20:32:34.686Z,8.17
2022-10-14T20:35:37.720Z,8.18
2022-10-14T20:38:41.940Z,8.15
2022-10-14T20:41:45.182Z,8.11
2022-10-14T20:44:47.988Z,8.09
2022-10-14T20:47:53.732Z,8.07
2022-10-14T20:50:56.867Z,8.02
2022-10-14T20:54:04.022Z,7.96
2022-10-14T20:57:07.980Z,7.93
2022-10-14T21:00:11.478Z,7.95
2022-10-14T21:03:14.241Z,7.92
2022-10-14T21:06:20.177Z,7.92
2022-10-14T21:09:22.911Z,7.88
2022-10-14T21:12:26.476Z,7.75
2022-10-14T21:15:29.253Z,7.81
2022-10-14T21:18:32.246Z,7.80
2022-10-14T21:21:45.388Z,7.84
2022-10-14T21:24:48.636Z,7.94
2022-10-14T21:27:51.866Z,7.92
2022-10-14T21:30:55.056Z,7.85
2022-10-14T21:34:05.050Z,7.85
2022-10-14T21:37:09.015Z,7.80
2022-10-14T21:40:12.946Z,7.81
2022-10-14T21:43:16.054Z,7.88
2022-10-14T21:46:18.832Z,7.89
2022-10-14T21:49:21.997Z,7.88
2022-10-14T21:52:25.698Z,7.86
2022-10-14T21:55:29.220Z,7.83
2022-10-14T21:58:32.154Z,7.84
2022-10-14T22:01:35.290Z,7.73
2022-10-14T22:04:38.562Z,7.80
2022-10-14T22:07:41.373Z,7.73
2022-10-14T22:10:45.418Z,7.68
2022-10-14T22:13:48.887Z,7.69
2022-10-14T22:16:52.006Z,7.63
2022-10-14T22:19:54.826Z,7.58
2022-10-14T22:22:59.410Z,7.61
2022-10-14T22:26:03.395Z,7.64
2022-10-14T22:29:11.663Z,7.55
2022-10-14T22:32:14.427Z,7.51
2022-10-14T22:35:17.515Z,7.41
2022-10-14T22:38:20.391Z,7.43
2022-10-14T22:41:24.590Z,7.45
2022-10-14T22:44:27.283Z,7.45
2022-10-14T22:47:30.734Z,7.46
2022-10-14T22:50:35.445Z,7.42
2022-10-14T22:53:40.846Z,7.42
2022-10-14T22:56:43.844Z,7.38
2022-10-14T22:59:46.987Z,7.30
2022-10-14T23:02:49.739Z,7.18
2022-10-14T23:05:52.909Z,7.25
2022-10-14T23:08:55.786Z,7.21
2022-10-14T23:11:58.845Z,7.22
2022-10-14T23:15:01.741Z,7.20
2022-10-14T23:18:06.383Z,7.09
2022-10-14T23:21:09.182Z,7.20
2022-10-14T23:24:12.318Z,7.15
2022-10-14T23:27:14.955Z,7.11
2022-10-14T23:30:18.217Z,7.11
2022-10-14T23:33:21.130Z,7.16
2022-10-14T23:36:24.567Z,7.12
2022-10-14T23:39:27.355Z,7.08
2022-10-14T23:42:30.461Z,6.96
2022-10-14T23:45:33.205Z,6.97
2022-10-14T23:48:36.905Z,6.96
2022-10-14T23:51:39.701Z,6.93
2022-10-14T23:54:42.786Z,6.90
2022-10-14T23:57:45.642Z,6.86
